Time;durP1;ratioP1;P1;durP2;ratioP2;P2;SDS_P1;SDS_P2;PMS_P1;PMS_P2;Temp;Humidity;BMP_temperature;BMP_pressure;BME280_temperature;BME280_humidity;BME280_pressure;Samples;Min_cycle;Max_cycle;Signal;HPM_P1;HPM_P2
2022/08/11 00:00:20;;;;;;;2.70;1.23;;;;;;;23.49;38.07;101018.91;18432292;32;20454;-55
2022/08/11 00:10:25;;;;;;;2.65;1.20;;;;;;;23.47;38.39;101013.66;18432432;32;20115;-55
2022/08/11 00:20:32;;;;;;;3.17;1.00;;;;;;;23.30;39.22;100995.81;18431880;32;20096;-55
2022/08/11 00:30:38;;;;;;;2.65;1.15;;;;;;;23.46;38.89;100987.09;18431515;32;20111;-55
2022/08/11 00:40:51;;;;;;;1.75;1.08;;;;;;;23.36;38.95;100979.56;18430957;32;20119;-55
2022/08/11 00:51:02;;;;;;;2.75;1.20;;;;;;;23.12;39.44;100978.84;18430787;32;20130;-55
2022/08/11 01:01:10;;;;;;;;;;;;;;;23.13;39.64;100977.91;18430457;32;20104;-55
2022/08/11 01:11:51;;;;;;;1.83;1.20;;;;;;;23.13;40.04;100977.91;18430176;32;20316;-55
2022/08/11 01:22:16;;;;;;;;;;;;;;;23.20;39.94;100983.81;18429543;32;20153;-55
2022/08/11 01:32:53;;;;;;;1.60;1.03;;;;;;;23.17;40.63;100982.16;18428239;32;19986;-55
2022/08/11 01:54:21;;;;;;;2.50;0.98;;;;;;;23.11;39.44;100954.00;18436316;32;20439;-55
2022/08/11 02:04:35;;;;;;;4.23;1.30;;;;;;;23.04;40.43;100960.56;18435668;32;20441;-55
2022/08/11 02:14:44;;;;;;;2.37;1.23;;;;;;;22.86;41.52;100962.25;18435946;32;20116;-55
2022/08/11 02:25:14;;;;;;;1.42;0.90;;;;;;;22.80;41.42;100955.44;18434881;32;20093;-55
2022/08/11 02:35:25;;;;;;;1.48;1.00;;;;;;;22.88;40.71;100955.06;18435118;32;20453;-55
2022/08/11 02:45:40;;;;;;;2.30;1.20;;;;;;;22.85;40.67;100953.41;18433400;32;20369;-55
2022/08/11 02:55:53;;;;;;;1.55;0.95;;;;;;;22.57;41.87;100944.03;18434420;32;20114;-55
2022/08/11 03:06:09;;;;;;;2.43;1.00;;;;;;;22.31;42.62;100931.81;18435047;32;20104;-55
2022/08/11 03:26:47;;;;;;;4.85;1.48;;;;;;;21.75;44.31;100939.44;18432095;32;20093;-55
2022/08/11 03:37:11;;;;;;;7.95;2.05;;;;;;;21.38;45.53;100940.88;18430870;32;20810;-55
2022/08/11 03:47:41;;;;;;;3.20;1.42;;;;;;;21.27;45.83;100949.25;18483568;32;20334;-55
2022/08/11 03:58:38;;;;;;;2.45;1.23;;;;;;;21.12;46.44;100953.38;18472612;32;20073;-55
2022/08/11 04:09:19;;;;;;;6.53;1.80;;;;;;;21.30;46.23;100957.09;18354415;32;20089;-55
2022/08/11 04:19:51;;;;;;;5.10;1.50;;;;;;;21.24;46.67;100965.28;18365899;32;20093;-55
2022/08/11 04:30:06;;;;;;;5.47;1.60;;;;;;;21.67;46.07;100952.13;18367858;32;20089;-55
2022/08/11 04:40:39;;;;;;;3.80;1.50;;;;;;;21.64;46.55;100953.13;18366979;32;20115;-55
2022/08/11 05:01:43;;;;;;;13.55;1.98;;;;;;;22.18;46.24;100966.91;18301932;32;20093;-55
2022/08/11 05:12:29;;;;;;;5.43;1.45;;;;;;;22.34;45.79;100970.69;18304456;32;20163;-55
2022/08/11 06:04:33;;;;;;;2.37;1.05;;;;;;;24.42;38.08;100976.22;18155420;32;20098;-55
2022/08/11 06:14:43;;;;;;;5.22;1.55;;;;;;;24.65;37.16;100977.69;18243500;32;20118;-55
2022/08/11 06:24:54;;;;;;;1.98;1.00;;;;;;;24.85;36.54;100979.34;18245188;32;20094;-56
2022/08/11 06:35:10;;;;;;;2.35;0.93;;;;;;;25.67;34.25;100978.53;18248758;32;20120;-56
2022/08/11 06:45:27;;;;;;;3.80;1.10;;;;;;;26.25;33.44;100968.09;18302572;32;20163;-56
2022/08/11 07:06:07;;;;;;;3.47;0.93;;;;;;;27.11;31.99;100958.44;18305614;32;20461;-56
2022/08/11 07:16:11;;;;;;;2.53;1.10;;;;;;;27.80;30.49;100955.81;18301893;32;20148;-56
2022/08/11 07:36:41;;;;;;;2.00;1.10;;;;;;;28.11;31.01;100958.22;18304778;32;20090;-56
2022/08/11 08:18:14;;;;;;;2.12;0.82;;;;;;;28.41;30.35;100934.81;18305186;32;20155;-55
2022/08/11 08:28:30;;;;;;;3.28;1.02;;;;;;;30.01;25.46;100907.16;18303675;32;20160;-56
2022/08/11 08:38:34;;;;;;;0.90;0.80;;;;;;;29.91;26.23;100909.72;18303782;32;20093;-56
2022/08/11 08:48:40;;;;;;;2.05;0.90;;;;;;;29.97;25.32;100909.22;18297873;32;20094;-56
2022/08/11 08:58:47;;;;;;;2.50;1.10;;;;;;;30.44;24.12;100903.84;18192594;32;20094;-56
2022/08/11 09:08:54;;;;;;;;;;;;;;;30.27;23.34;100889.03;18177084;32;20160;-55
2022/08/11 09:18:59;;;;;;;0.93;0.60;;;;;;;30.42;22.29;100886.09;18218486;32;19988;-56
2022/08/11 09:29:04;;;;;;;1.95;0.80;;;;;;;30.11;23.50;100873.19;18237643;32;20112;-56
2022/08/11 09:49:30;;;;;;;1.45;0.68;;;;;;;31.01;22.61;100854.47;18300634;32;20102;-55
2022/08/11 09:59:33;;;;;;;1.10;0.73;;;;;;;31.83;21.63;100854.94;18305371;32;20115;-55
2022/08/11 10:09:42;;;;;;;2.83;0.98;;;;;;;31.51;22.23;100839.63;18307743;32;20361;-55
2022/08/11 10:19:46;;;;;;;4.12;0.70;;;;;;;31.45;21.15;100834.75;18307543;32;20112;-56
2022/08/11 10:40:31;;;;;;;2.00;0.50;;;;;;;32.26;20.24;100812.56;18306843;32;20438;-56
2022/08/11 11:00:59;;;;;;;1.85;0.60;;;;;;;33.01;19.11;100765.44;18243341;32;20082;-56
2022/08/11 11:11:06;;;;;;;2.20;0.70;;;;;;;31.62;19.46;100787.44;18242190;32;20113;-55
2022/08/11 11:21:11;;;;;;;8.52;1.05;;;;;;;31.82;19.63;100773.16;18296619;32;78705;-55
2022/08/11 11:31:25;;;;;;;0.98;0.47;;;;;;;30.60;21.05;100765.25;18305439;32;20456;-55
2022/08/11 11:41:29;;;;;;;1.23;0.62;;;;;;;31.47;21.31;100765.34;18305424;32;20089;-55
2022/08/11 11:51:33;;;;;;;0.52;0.37;;;;;;;31.93;21.27;100747.06;18299854;32;20098;-56
2022/08/11 12:01:37;;;;;;;0.95;0.57;;;;;;;30.50;20.90;100726.59;18304269;32;20090;-56
2022/08/11 12:32:27;;;;;;;0.90;0.52;;;;;;;33.17;20.38;100706.22;18303286;32;20112;-54
2022/08/11 12:52:59;;;;;;;0.88;0.40;;;;;;;31.77;21.85;100701.63;18302124;32;20116;-55
2022/08/11 13:13:26;;;;;;;1.60;0.30;;;;;;;31.01;23.05;100690.03;18237377;32;20094;-55
2022/08/11 13:23:52;;;;;;;1.77;0.40;;;;;;;30.52;23.81;100676.16;18174192;32;20102;-57
2022/08/11 13:34:07;;;;;;;0.37;0.35;;;;;;;31.49;21.67;100675.22;18190318;32;20123;-56
2022/08/11 13:44:11;;;;;;;0.82;0.45;;;;;;;31.30;20.49;100672.41;18307095;32;20081;-56
2022/08/11 13:54:21;;;;;;;;;;;;;;;31.35;21.47;100662.06;18301127;32;20094;-56
2022/08/11 14:04:29;;;;;;;1.58;0.22;;;;;;;31.53;20.36;100656.94;18307937;32;19987;-55
2022/08/11 14:14:36;;;;;;;0.57;0.40;;;;;;;31.19;20.96;100647.19;18300930;32;20124;-56
2022/08/11 14:24:40;;;;;;;0.98;0.43;;;;;;;31.21;20.68;100650.63;18304081;32;20447;-56
2022/08/11 14:34:45;;;;;;;2.12;0.45;;;;;;;31.00;20.87;100639.81;18303378;32;20127;-56
2022/08/11 15:05:46;;;;;;;1.02;0.60;;;;;;;31.36;21.66;100631.44;18218045;32;20450;-56
2022/08/11 15:37:25;;;;;;;0.57;0.40;;;;;;;30.78;23.14;100625.50;18217669;32;20223;-56
2022/08/11 15:47:29;;;;;;;7.65;1.20;;;;;;;29.89;24.72;100621.91;18217548;32;20160;-56
2022/08/11 16:08:11;;;;;;;2.65;0.70;;;;;;;29.82;24.52;100604.53;17981929;33;20158;-56
2022/08/11 16:18:20;;;;;;;2.20;1.12;;;;;;;29.25;25.58;100615.25;18030743;32;20114;-56
2022/08/11 16:28:24;;;;;;;1.70;1.02;;;;;;;29.74;24.95;100605.16;18104231;32;20107;-56
2022/08/11 16:38:35;;;;;;;1.95;0.90;;;;;;;29.61;25.68;100605.28;18202496;32;20098;-56
2022/08/11 16:48:40;;;;;;;3.78;0.75;;;;;;;29.44;26.22;100617.41;18302839;32;20151;-56
2022/08/11 17:19:33;;;;;;;1.87;0.85;;;;;;;26.08;32.50;100680.16;18298660;32;20094;-56
2022/08/11 17:29:58;;;;;;;1.27;0.60;;;;;;;26.02;33.07;100682.25;18300785;32;20108;-55
2022/08/11 17:40:06;;;;;;;2.87;1.00;;;;;;;25.89;33.73;100671.50;18299782;32;20419;-57
2022/08/11 17:50:12;;;;;;;1.42;0.70;;;;;;;25.82;34.01;100677.31;18296199;32;20756;-55
2022/08/11 18:00:21;;;;;;;3.22;0.70;;;;;;;25.93;33.00;100682.84;18298282;32;20442;-56
